Time;durP1;ratioP1;P1;durP2;ratioP2;P2;SDS_P1;SDS_P2;PMS_P1;PMS_P2;Temp;Humidity;BMP_temperature;BMP_pressure;BME280_temperature;BME280_humidity;BME280_pressure;Samples;Min_cycle;Max_cycle;Signal;HPM_P1;HPM_P2
2022/12/02 00:00:15;;;;;;;212.80;20.53;;;;;;;;;;4977493;28;20181;-83
2022/12/02 00:02:41;;;;;;;63.10;15.07;;;;;;;;;;4973951;28;20177;-83
2022/12/02 00:05:09;;;;;;;61.27;13.80;;;;;;;;;;4967432;28;20187;-83
2022/12/02 00:07:35;;;;;;;138.07;17.53;;;;;;;;;;4972374;28;20180;-83
2022/12/02 00:10:00;;;;;;;84.87;15.23;;;;;;;;;;4970728;28;20215;-83
2022/12/02 00:12:26;;;;;;;162.53;19.47;;;;;;;;;;4971594;28;20180;-83
2022/12/02 00:14:56;;;;;;;100.77;15.23;;;;;;;;;;4971966;28;20180;-83
2022/12/02 00:17:21;;;;;;;146.53;15.43;;;;;;;;;;4972947;28;20212;-83
2022/12/02 00:19:47;;;;;;;212.13;22.23;;;;;;;;;;4969534;28;20192;-83
2022/12/02 00:22:12;;;;;;;156.07;17.70;;;;;;;;;;4966191;28;20181;-83
2022/12/02 00:24:37;;;;;;;37.20;10.57;;;;;;;;;;4970624;28;20176;-83
2022/12/02 00:27:02;;;;;;;83.37;13.77;;;;;;;;;;4972481;28;20184;-83
2022/12/02 00:29:28;;;;;;;116.60;15.67;;;;;;;;;;4975836;28;20250;-83
2022/12/02 00:31:53;;;;;;;133.20;15.80;;;;;;;;;;4976680;28;20250;-83
2022/12/02 00:34:18;;;;;;;120.93;14.67;;;;;;;;;;4977620;28;20184;-83
2022/12/02 00:36:43;;;;;;;227.67;21.73;;;;;;;;;;4975067;28;20191;-83
2022/12/02 00:39:08;;;;;;;160.00;18.10;;;;;;;;;;4974179;28;20184;-84
2022/12/02 00:41:34;;;;;;;51.60;12.20;;;;;;;;;;4975334;28;20204;-83
2022/12/02 00:46:43;;;;;;;69.40;13.57;;;;;;;;;;4977718;28;20182;-83
2022/12/02 00:49:10;;;;;;;153.47;18.27;;;;;;;;;;4977503;28;20209;-84
2022/12/02 00:51:36;;;;;;;72.73;14.30;;;;;;;;;;4976048;28;20208;-83
2022/12/02 00:54:01;;;;;;;80.33;14.43;;;;;;;;;;4968038;28;20182;-83
2022/12/02 00:56:26;;;;;;;59.83;15.03;;;;;;;;;;4971878;28;20195;-83
2022/12/02 00:58:52;;;;;;;113.67;14.43;;;;;;;;;;4971278;28;20208;-83
2022/12/02 01:01:17;;;;;;;77.27;13.90;;;;;;;;;;4993277;28;20181;-83
2022/12/02 01:03:42;;;;;;;58.93;13.27;;;;;;;;;;4984557;28;20183;-83
2022/12/02 01:06:08;;;;;;;70.83;13.93;;;;;;;;;;4978922;28;20232;-83
2022/12/02 01:08:33;;;;;;;122.47;15.30;;;;;;;;;;4980305;28;20212;-83
2022/12/02 01:10:58;;;;;;;66.90;12.47;;;;;;;;;;4982757;28;20191;-83
2022/12/02 01:13:24;;;;;;;118.70;16.53;;;;;;;;;;4975704;28;20208;-83
2022/12/02 01:15:50;;;;;;;70.93;14.57;;;;;;;;;;4969416;28;20174;-83
2022/12/02 01:18:15;;;;;;;82.10;13.27;;;;;;;;;;4971067;28;20248;-83
2022/12/02 01:20:40;;;;;;;104.07;14.83;;;;;;;;;;4979910;28;20253;-83
2022/12/02 01:23:06;;;;;;;168.23;17.00;;;;;;;;;;4970774;28;20185;-83
2022/12/02 01:25:31;;;;;;;177.03;17.53;;;;;;;;;;4972730;28;20176;-83
2022/12/02 01:27:56;;;;;;;119.77;15.43;;;;;;;;;;4983808;28;20553;-83
2022/12/02 01:30:22;;;;;;;88.37;15.13;;;;;;;;;;4972835;28;20305;-83
2022/12/02 01:32:47;;;;;;;132.97;16.83;;;;;;;;;;4969152;28;20192;-83
2022/12/02 01:35:13;;;;;;;177.03;20.13;;;;;;;;;;4973093;28;20243;-83
2022/12/02 01:37:38;;;;;;;57.40;14.27;;;;;;;;;;4982424;28;20203;-83
2022/12/02 01:40:04;;;;;;;94.23;15.07;;;;;;;;;;4970370;28;20228;-83
2022/12/02 01:42:30;;;;;;;63.73;13.93;;;;;;;;;;4973156;28;20177;-83
2022/12/02 01:44:55;;;;;;;81.80;14.77;;;;;;;;;;4972788;28;20295;-83
2022/12/02 01:47:20;;;;;;;65.03;13.33;;;;;;;;;;4969638;28;20181;-83
2022/12/02 01:49:45;;;;;;;62.83;13.57;;;;;;;;;;4979192;28;20201;-83
2022/12/02 01:52:11;;;;;;;99.77;15.57;;;;;;;;;;4972233;28;20211;-83
2022/12/02 01:54:36;;;;;;;47.60;13.63;;;;;;;;;;4970869;28;20200;-83
2022/12/02 01:57:01;;;;;;;65.63;13.20;;;;;;;;;;4971555;28;20227;-83
2022/12/02 01:59:26;;;;;;;62.60;14.83;;;;;;;;;;4970976;28;20188;-83
2022/12/02 02:01:52;;;;;;;52.77;13.67;;;;;;;;;;4968301;28;20239;-83
2022/12/02 02:04:17;;;;;;;73.03;13.57;;;;;;;;;;4970734;28;20383;-83
2022/12/02 02:06:44;;;;;;;45.73;12.93;;;;;;;;;;4973159;28;20439;-83
2022/12/02 02:09:09;;;;;;;48.07;12.77;;;;;;;;;;4972779;28;20219;-83
2022/12/02 02:11:35;;;;;;;66.63;13.30;;;;;;;;;;4974165;28;20189;-83
2022/12/02 02:14:02;;;;;;;101.67;17.60;;;;;;;;;;4969161;28;20185;-83
2022/12/02 02:16:27;;;;;;;54.47;13.20;;;;;;;;;;4978016;28;20319;-83
2022/12/02 02:18:53;;;;;;;68.43;14.03;;;;;;;;;;4969850;28;20295;-83
2022/12/02 02:21:20;;;;;;;53.63;12.87;;;;;;;;;;4974426;28;20227;-83
2022/12/02 02:23:45;;;;;;;62.23;13.47;;;;;;;;;;4980403;28;20321;-83
2022/12/02 02:26:10;;;;;;;46.70;13.53;;;;;;;;;;4971016;28;20352;-83
2022/12/02 02:28:36;;;;;;;76.37;12.57;;;;;;;;;;4974206;28;20322;-83
2022/12/02 02:31:01;;;;;;;125.50;15.17;;;;;;;;;;4979224;28;20267;-83
2022/12/02 02:33:27;;;;;;;48.67;12.83;;;;;;;;;;4986513;28;20180;-83
2022/12/02 02:35:53;;;;;;;73.60;13.70;;;;;;;;;;4973476;28;20187;-83
2022/12/02 02:38:20;;;;;;;120.33;15.10;;;;;;;;;;4974435;28;20185;-83
2022/12/02 02:40:46;;;;;;;45.13;11.17;;;;;;;;;;4972032;28;20184;-83
2022/12/02 02:43:11;;;;;;;56.33;11.00;;;;;;;;;;4972274;28;20295;-83
2022/12/02 02:45:38;;;;;;;33.83;10.93;;;;;;;;;;4969196;28;20235;-83
2022/12/02 02:48:04;;;;;;;39.87;9.50;;;;;;;;;;4969401;28;20268;-82
2022/12/02 02:50:29;;;;;;;53.03;10.73;;;;;;;;;;4992798;28;20219;-83
2022/12/02 02:52:55;;;;;;;42.67;9.57;;;;;;;;;;4970833;28;20172;-83
2022/12/02 02:55:22;;;;;;;27.17;9.70;;;;;;;;;;4976842;28;20177;-83
2022/12/02 02:57:48;;;;;;;38.17;11.00;;;;;;;;;;4974966;28;20195;-83
2022/12/02 03:00:14;;;;;;;36.10;8.63;;;;;;;;;;4969514;28;20188;-83
2022/12/02 03:02:40;;;;;;;36.67;9.50;;;;;;;;;;4980705;28;20229;-83
2022/12/02 03:05:05;;;;;;;111.93;12.87;;;;;;;;;;4972943;28;20280;-83
2022/12/02 03:07:31;;;;;;;28.33;8.97;;;;;;;;;;4969026;28;20212;-82
2022/12/02 03:09:56;;;;;;;38.13;7.63;;;;;;;;;;4969292;28;20204;-83
2022/12/02 03:12:21;;;;;;;78.93;11.00;;;;;;;;;;4972612;28;20223;-82
2022/12/02 03:14:47;;;;;;;65.70;10.73;;;;;;;;;;4969140;28;20263;-82
2022/12/02 03:17:13;;;;;;;32.30;8.37;;;;;;;;;;4976760;28;20196;-83
2022/12/02 03:19:39;;;;;;;38.33;9.93;;;;;;;;;;4971831;28;20357;-82
2022/12/02 03:22:04;;;;;;;29.33;9.50;;;;;;;;;;4978802;28;20176;-83
2022/12/02 03:24:30;;;;;;;47.03;9.77;;;;;;;;;;4969168;28;20179;-82
2022/12/02 03:26:55;;;;;;;60.93;10.00;;;;;;;;;;4967931;28;20195;-83
2022/12/02 03:29:20;;;;;;;36.10;9.20;;;;;;;;;;4970943;28;20267;-83
2022/12/02 03:31:46;;;;;;;56.27;9.13;;;;;;;;;;4973366;28;20244;-82
2022/12/02 03:34:11;;;;;;;22.33;7.07;;;;;;;;;;4970261;28;20181;-83
2022/12/02 03:36:37;;;;;;;79.60;11.73;;;;;;;;;;4979345;28;20268;-83
2022/12/02 03:39:03;;;;;;;42.77;8.70;;;;;;;;;;4968843;28;20251;-82
2022/12/02 03:41:28;;;;;;;67.43;10.43;;;;;;;;;;4970269;28;20184;-82
2022/12/02 03:43:54;;;;;;;39.07;9.53;;;;;;;;;;4972993;28;20215;-82
2022/12/02 03:46:19;;;;;;;67.57;9.90;;;;;;;;;;4971633;28;20181;-82
2022/12/02 03:48:46;;;;;;;73.60;10.87;;;;;;;;;;4976837;28;20205;-83
2022/12/02 03:51:11;;;;;;;34.33;7.30;;;;;;;;;;4968515;28;20184;-83
2022/12/02 03:53:36;;;;;;;32.20;7.63;;;;;;;;;;4970761;28;20177;-83
2022/12/02 03:56:03;;;;;;;59.80;10.07;;;;;;;;;;4969248;28;20184;-83
2022/12/02 03:58:36;;;;;;;27.43;8.57;;;;;;;;;;4968811;28;20173;-83
2022/12/02 04:01:01;;;;;;;91.27;10.67;;;;;;;;;;4975911;28;20180;-83
2022/12/02 04:03:26;;;;;;;44.23;8.30;;;;;;;;;;4967503;28;20200;-82
2022/12/02 04:05:51;;;;;;;47.97;9.50;;;;;;;;;;4963002;28;20297;-83
2022/12/02 04:08:17;;;;;;;67.03;10.43;;;;;;;;;;4971674;28;20185;-83
2022/12/02 04:10:42;;;;;;;66.50;10.37;;;;;;;;;;4969194;28;20208;-82
2022/12/02 04:13:07;;;;;;;95.17;12.97;;;;;;;;;;4976504;28;20176;-83
2022/12/02 04:15:32;;;;;;;97.43;12.63;;;;;;;;;;4967854;28;20174;-83
2022/12/02 04:17:57;;;;;;;35.07;11.03;;;;;;;;;;4975475;28;20288;-82
2022/12/02 04:20:22;;;;;;;69.07;11.90;;;;;;;;;;4974635;28;20221;-82
2022/12/02 04:22:48;;;;;;;25.10;9.83;;;;;;;;;;4982402;28;20180;-83
2022/12/02 04:25:13;;;;;;;51.10;8.77;;;;;;;;;;4974699;28;20214;-83
2022/12/02 04:27:38;;;;;;;132.17;18.20;;;;;;;;;;4974781;28;20184;-83
2022/12/02 04:30:04;;;;;;;51.07;11.30;;;;;;;;;;4971529;28;20209;-83
2022/12/02 04:32:29;;;;;;;72.23;12.40;;;;;;;;;;4969970;28;20180;-83
2022/12/02 04:34:54;;;;;;;50.83;9.03;;;;;;;;;;4983102;28;20239;-83
2022/12/02 04:37:19;;;;;;;45.17;9.60;;;;;;;;;;4993245;28;20200;-83
2022/12/02 04:39:45;;;;;;;55.53;10.30;;;;;;;;;;4976564;28;20196;-83
2022/12/02 04:42:10;;;;;;;46.50;9.80;;;;;;;;;;4970607;28;20189;-82
2022/12/02 04:44:35;;;;;;;69.20;11.17;;;;;;;;;;4967930;28;20239;-83
2022/12/02 04:47:00;;;;;;;75.07;10.87;;;;;;;;;;4972759;28;20188;-83
2022/12/02 04:49:25;;;;;;;41.80;8.30;;;;;;;;;;4970291;28;20204;-83
2022/12/02 04:51:51;;;;;;;81.63;11.00;;;;;;;;;;4968333;28;20188;-82
2022/12/02 04:54:16;;;;;;;40.47;8.90;;;;;;;;;;4970816;28;20181;-83
2022/12/02 04:56:41;;;;;;;50.90;8.77;;;;;;;;;;4974335;28;20180;-82
2022/12/02 04:59:07;;;;;;;43.83;9.30;;;;;;;;;;4963523;28;20185;-83
2022/12/02 05:01:32;;;;;;;42.50;9.67;;;;;;;;;;4974434;28;20188;-83
2022/12/02 05:03:57;;;;;;;66.00;8.63;;;;;;;;;;4971445;28;20187;-83
2022/12/02 05:06:22;;;;;;;50.90;9.20;;;;;;;;;;4983636;28;20178;-83
2022/12/02 05:08:47;;;;;;;66.77;9.93;;;;;;;;;;4970598;28;20235;-83
2022/12/02 05:11:13;;;;;;;49.63;10.13;;;;;;;;;;4976235;28;20176;-83
2022/12/02 05:13:38;;;;;;;54.03;9.63;;;;;;;;;;4973301;28;20181;-83
2022/12/02 05:16:04;;;;;;;63.13;10.33;;;;;;;;;;4976012;28;20219;-83
2022/12/02 05:18:30;;;;;;;62.50;11.83;;;;;;;;;;4975835;28;20190;-83
2022/12/02 05:20:55;;;;;;;38.90;9.17;;;;;;;;;;4972486;28;20288;-83
2022/12/02 05:23:20;;;;;;;30.97;9.90;;;;;;;;;;4973548;28;20183;-83
2022/12/02 05:25:45;;;;;;;59.20;11.53;;;;;;;;;;4974634;28;20180;-83
2022/12/02 05:28:11;;;;;;;83.30;12.57;;;;;;;;;;4973409;28;20176;-83
2022/12/02 05:30:36;;;;;;;51.47;10.17;;;;;;;;;;4981686;28;20208;-83
2022/12/02 05:33:01;;;;;;;53.93;10.77;;;;;;;;;;4981331;28;20184;-83
2022/12/02 05:35:26;;;;;;;82.50;12.73;;;;;;;;;;4975691;28;20200;-83
2022/12/02 05:37:51;;;;;;;30.10;10.17;;;;;;;;;;4987105;28;20275;-83
2022/12/02 05:40:17;;;;;;;41.17;10.00;;;;;;;;;;4977537;28;20258;-82
2022/12/02 05:42:42;;;;;;;72.27;11.93;;;;;;;;;;4970456;28;20200;-83
2022/12/02 05:45:18;;;;;;;83.67;12.27;;;;;;;;;;4970866;28;20208;-83
2022/12/02 05:47:47;;;;;;;55.03;10.30;;;;;;;;;;4977058;28;20184;-83
2022/12/02 05:50:12;;;;;;;40.87;10.37;;;;;;;;;;4973875;28;20204;-83
2022/12/02 05:52:38;;;;;;;57.40;11.33;;;;;;;;;;4972226;28;20180;-83
2022/12/02 05:55:10;;;;;;;42.17;10.50;;;;;;;;;;4972751;28;20177;-83
2022/12/02 05:57:35;;;;;;;59.17;11.80;;;;;;;;;;4973009;28;20181;-83
2022/12/02 06:00:10;;;;;;;29.70;9.93;;;;;;;;;;4971092;28;20187;-83
2022/12/02 06:02:37;;;;;;;33.97;9.10;;;;;;;;;;4972114;28;20184;-83
2022/12/02 06:05:12;;;;;;;53.67;9.63;;;;;;;;;;4979727;28;20197;-83
2022/12/02 06:07:37;;;;;;;52.53;10.87;;;;;;;;;;4967209;28;20267;-83
2022/12/02 06:10:05;;;;;;;26.33;8.77;;;;;;;;;;4965642;28;20296;-83
2022/12/02 06:12:30;;;;;;;37.93;9.10;;;;;;;;;;4977625;28;20273;-83
2022/12/02 06:14:55;;;;;;;35.03;9.47;;;;;;;;;;4968352;28;20212;-83
2022/12/02 06:17:20;;;;;;;28.20;9.17;;;;;;;;;;4970053;28;20207;-83
2022/12/02 06:19:52;;;;;;;24.33;8.73;;;;;;;;;;4990478;28;20289;-83
2022/12/02 06:22:18;;;;;;;26.27;9.03;;;;;;;;;;4968018;28;20516;-83
2022/12/02 06:24:43;;;;;;;14.40;8.00;;;;;;;;;;4968666;28;20236;-82
2022/12/02 06:27:11;;;;;;;36.23;9.37;;;;;;;;;;4967638;28;20181;-82
2022/12/02 06:29:37;;;;;;;15.77;7.27;;;;;;;;;;4970399;28;20215;-83
2022/12/02 06:32:04;;;;;;;23.73;9.07;;;;;;;;;;4968815;28;20177;-82
2022/12/02 06:34:35;;;;;;;24.57;8.37;;;;;;;;;;4968618;28;20196;-83
2022/12/02 06:37:07;;;;;;;16.07;7.77;;;;;;;;;;4977757;28;20183;-83
2022/12/02 06:39:32;;;;;;;17.97;6.93;;;;;;;;;;4974268;28;20188;-82
2022/12/02 06:42:13;;;;;;;18.03;9.93;;;;;;;;;;4972193;28;20194;-82
2022/12/02 06:47:45;;;;;;;24.40;9.33;;;;;;;;;;4972375;28;20206;-83
2022/12/02 06:50:25;;;;;;;31.43;9.43;;;;;;;;;;4930698;28;20311;-83
2022/12/02 06:52:50;;;;;;;28.40;9.07;;;;;;;;;;4970238;28;20184;-83
2022/12/02 06:55:32;;;;;;;26.97;8.87;;;;;;;;;;4969663;28;20267;-82
2022/12/02 06:57:59;;;;;;;25.77;8.67;;;;;;;;;;4971806;28;20179;-83
2022/12/02 07:00:25;;;;;;;20.07;7.43;;;;;;;;;;4968606;28;20216;-83
2022/12/02 07:02:50;;;;;;;38.17;9.60;;;;;;;;;;4963718;28;20255;-82
2022/12/02 07:05:17;;;;;;;23.27;9.57;;;;;;;;;;4987027;28;20221;-83
2022/12/02 07:07:42;;;;;;;20.40;8.37;;;;;;;;;;4970922;28;20213;-83
2022/12/02 07:10:26;;;;;;;33.30;8.80;;;;;;;;;;4970849;28;20236;-82
2022/12/02 07:12:51;;;;;;;25.40;8.43;;;;;;;;;;4968221;28;20365;-83
2022/12/02 07:15:30;;;;;;;23.10;9.70;;;;;;;;;;4973312;28;20180;-82
2022/12/02 07:18:08;;;;;;;35.93;9.70;;;;;;;;;;4969266;28;20200;-83
2022/12/02 07:20:34;;;;;;;25.87;9.37;;;;;;;;;;4968723;28;20223;-83
2022/12/02 07:23:00;;;;;;;45.17;9.17;;;;;;;;;;4988203;28;20188;-82
2022/12/02 07:25:36;;;;;;;20.00;7.17;;;;;;;;;;4970944;28;20196;-82
2022/12/02 07:28:13;;;;;;;35.10;8.53;;;;;;;;;;4981796;28;20542;-83
2022/12/02 07:30:42;;;;;;;25.97;7.70;;;;;;;;;;4968010;28;20294;-82
2022/12/02 07:33:07;;;;;;;27.53;6.93;;;;;;;;;;4981920;28;20272;-83
2022/12/02 07:35:32;;;;;;;25.13;7.70;;;;;;;;;;4968380;28;20260;-83
2022/12/02 07:37:57;;;;;;;19.30;7.90;;;;;;;;;;4967953;28;20183;-83
2022/12/02 07:40:23;;;;;;;15.13;7.77;;;;;;;;;;4969547;28;20190;-83
2022/12/02 07:42:48;;;;;;;28.50;8.23;;;;;;;;;;4961858;28;20237;-83
2022/12/02 07:45:14;;;;;;;19.43;7.30;;;;;;;;;;4977111;28;20280;-83
2022/12/02 07:47:40;;;;;;;36.17;7.23;;;;;;;;;;4970052;28;20273;-82
2022/12/02 07:50:05;;;;;;;31.37;8.83;;;;;;;;;;4964633;28;20283;-82
2022/12/02 07:52:30;;;;;;;17.17;7.43;;;;;;;;;;4969946;28;20177;-83
2022/12/02 07:54:56;;;;;;;24.77;7.37;;;;;;;;;;4975516;28;20180;-83
2022/12/02 07:57:21;;;;;;;25.80;7.80;;;;;;;;;;4984721;28;20180;-82
2022/12/02 07:59:46;;;;;;;22.47;7.40;;;;;;;;;;4957058;28;20199;-83
2022/12/02 08:02:12;;;;;;;12.10;6.47;;;;;;;;;;4963903;28;20277;-83
2022/12/02 08:04:37;;;;;;;26.43;7.97;;;;;;;;;;4968448;28;20212;-83
2022/12/02 08:07:02;;;;;;;31.97;7.17;;;;;;;;;;4962684;28;20271;-83
2022/12/02 08:09:27;;;;;;;28.47;7.43;;;;;;;;;;4964431;28;20224;-83
2022/12/02 08:11:53;;;;;;;27.27;7.63;;;;;;;;;;4964980;28;20184;-83
2022/12/02 08:14:18;;;;;;;32.43;7.50;;;;;;;;;;4975385;28;20215;-82
2022/12/02 08:16:43;;;;;;;46.50;7.97;;;;;;;;;;4965920;28;20457;-83
2022/12/02 08:19:08;;;;;;;17.30;6.47;;;;;;;;;;4969816;28;20176;-82
2022/12/02 08:21:34;;;;;;;28.73;7.00;;;;;;;;;;4971625;28;20228;-83
2022/12/02 08:23:59;;;;;;;29.47;8.97;;;;;;;;;;4975031;28;20194;-83
2022/12/02 08:26:24;;;;;;;30.77;9.13;;;;;;;;;;4968915;28;20242;-83
2022/12/02 08:28:50;;;;;;;26.53;8.73;;;;;;;;;;4969069;28;20216;-82
2022/12/02 08:31:15;;;;;;;29.63;8.53;;;;;;;;;;4970302;28;20181;-83
2022/12/02 08:33:40;;;;;;;23.87;10.70;;;;;;;;;;4970682;28;20172;-83
2022/12/02 08:36:06;;;;;;;29.90;8.27;;;;;;;;;;4966154;28;20176;-83
2022/12/02 08:38:31;;;;;;;17.43;7.73;;;;;;;;;;4967643;28;20191;-83
2022/12/02 08:40:56;;;;;;;32.33;8.20;;;;;;;;;;4969580;28;20189;-83
2022/12/02 08:43:21;;;;;;;31.30;8.40;;;;;;;;;;4971072;28;20445;-84
2022/12/02 08:45:46;;;;;;;15.97;8.23;;;;;;;;;;4968167;28;20233;-84
2022/12/02 08:48:12;;;;;;;24.47;8.00;;;;;;;;;;4995667;28;20270;-84
2022/12/02 08:50:37;;;;;;;34.77;10.03;;;;;;;;;;4971426;28;20193;-83
2022/12/02 08:53:02;;;;;;;32.77;9.67;;;;;;;;;;4973447;28;20203;-84
2022/12/02 08:55:28;;;;;;;34.57;10.70;;;;;;;;;;4979427;28;20172;-84
2022/12/02 08:57:53;;;;;;;29.30;8.40;;;;;;;;;;4979736;28;20179;-83
2022/12/02 09:00:18;;;;;;;36.33;10.57;;;;;;;;;;4984430;28;20203;-83
2022/12/02 09:02:43;;;;;;;37.53;11.43;;;;;;;;;;4976628;28;20183;-83
2022/12/02 09:05:09;;;;;;;31.23;8.43;;;;;;;;;;4974788;28;20168;-84
2022/12/02 09:07:34;;;;;;;48.13;10.87;;;;;;;;;;4972256;28;20184;-84
2022/12/02 09:09:59;;;;;;;29.97;9.03;;;;;;;;;;4971297;28;20238;-83
2022/12/02 09:12:26;;;;;;;24.43;9.53;;;;;;;;;;4975576;28;21608;-84
2022/12/02 09:14:52;;;;;;;28.60;9.03;;;;;;;;;;4993515;28;20235;-84
2022/12/02 09:17:17;;;;;;;53.47;10.13;;;;;;;;;;4970431;28;20196;-84
2022/12/02 09:19:42;;;;;;;61.63;11.37;;;;;;;;;;4978069;28;20259;-83
2022/12/02 09:22:07;;;;;;;41.47;10.70;;;;;;;;;;4972196;28;20181;-83
2022/12/02 09:24:34;;;;;;;49.87;11.50;;;;;;;;;;4971814;28;20200;-83
2022/12/02 09:26:59;;;;;;;34.33;12.10;;;;;;;;;;4973510;28;20251;-84
2022/12/02 09:29:24;;;;;;;42.80;10.23;;;;;;;;;;4991839;28;20204;-84
2022/12/02 09:31:49;;;;;;;43.27;11.00;;;;;;;;;;4973682;28;20181;-83
2022/12/02 09:34:15;;;;;;;39.47;11.60;;;;;;;;;;4970162;28;20177;-83
2022/12/02 09:36:40;;;;;;;20.60;8.40;;;;;;;;;;4977753;28;20238;-83
2022/12/02 09:39:05;;;;;;;31.43;9.37;;;;;;;;;;4971083;28;20184;-83
2022/12/02 09:41:30;;;;;;;21.27;8.33;;;;;;;;;;4971809;28;20208;-83
2022/12/02 09:43:55;;;;;;;19.40;8.77;;;;;;;;;;4972984;28;20188;-82
2022/12/02 09:46:21;;;;;;;25.13;8.00;;;;;;;;;;4971911;28;20220;-82
2022/12/02 09:48:48;;;;;;;25.50;8.83;;;;;;;;;;4972176;28;20220;-82
2022/12/02 09:51:13;;;;;;;19.00;7.53;;;;;;;;;;4971107;28;20177;-82
2022/12/02 09:53:39;;;;;;;36.53;7.83;;;;;;;;;;4969162;28;20188;-82
2022/12/02 09:56:09;;;;;;;39.07;8.60;;;;;;;;;;4971160;28;20181;-83
2022/12/02 09:58:36;;;;;;;17.87;7.73;;;;;;;;;;4975735;28;20180;-82
2022/12/02 10:01:01;;;;;;;68.33;9.37;;;;;;;;;;4970093;28;20212;-82
2022/12/02 10:03:27;;;;;;;19.10;7.50;;;;;;;;;;4974238;28;20216;-82
2022/12/02 10:05:53;;;;;;;18.53;7.73;;;;;;;;;;4972930;28;20193;-82
2022/12/02 10:08:24;;;;;;;16.37;7.80;;;;;;;;;;4972961;28;20188;-82
2022/12/02 10:10:50;;;;;;;20.50;9.27;;;;;;;;;;4969255;28;20205;-82
2022/12/02 10:13:16;;;;;;;23.53;13.40;;;;;;;;;;4972061;28;20172;-82
2022/12/02 10:15:42;;;;;;;17.43;8.93;;;;;;;;;;4972944;28;20176;-82
2022/12/02 10:18:24;;;;;;;19.40;8.37;;;;;;;;;;4980123;28;20200;-82
2022/12/02 10:20:49;;;;;;;15.47;8.13;;;;;;;;;;4965455;28;20282;-82
2022/12/02 10:23:19;;;;;;;14.90;7.73;;;;;;;;;;4974547;28;20184;-82
2022/12/02 10:25:46;;;;;;;15.53;8.13;;;;;;;;;;4971885;28;20232;-82
2022/12/02 10:28:22;;;;;;;26.07;9.23;;;;;;;;;;4970776;28;20182;-82
2022/12/02 10:30:49;;;;;;;14.73;7.60;;;;;;;;;;4963237;28;20502;-82
2022/12/02 10:33:14;;;;;;;18.43;8.33;;;;;;;;;;4967659;28;20173;-82
2022/12/02 10:35:44;;;;;;;22.97;8.17;;;;;;;;;;4971115;28;20216;-82
2022/12/02 10:38:28;;;;;;;15.23;7.77;;;;;;;;;;4970584;28;20256;-82
2022/12/02 10:41:09;;;;;;;15.20;7.20;;;;;;;;;;4969004;28;20184;-82
2022/12/02 10:43:35;;;;;;;14.93;7.53;;;;;;;;;;4968180;28;20268;-82
2022/12/02 10:46:00;;;;;;;15.80;7.93;;;;;;;;;;4969072;28;20292;-82
2022/12/02 10:48:25;;;;;;;14.00;7.80;;;;;;;;;;4969353;28;20188;-82
2022/12/02 10:50:50;;;;;;;12.20;7.47;;;;;;;;;;4966817;28;20223;-82
2022/12/02 10:53:16;;;;;;;19.20;8.97;;;;;;;;;;4972875;28;20183;-82
2022/12/02 10:55:42;;;;;;;16.53;8.23;;;;;;;;;;4971754;28;20172;-82
2022/12/02 10:58:12;;;;;;;12.23;7.13;;;;;;;;;;4966956;28;20183;-82
2022/12/02 11:00:37;;;;;;;12.57;6.83;;;;;;;;;;4975340;28;20212;-82
2022/12/02 11:03:02;;;;;;;12.87;7.47;;;;;;;;;;4985112;28;21158;-82
2022/12/02 11:05:32;;;;;;;11.60;6.87;;;;;;;;;;4967591;28;20188;-82
2022/12/02 11:07:59;;;;;;;13.03;8.20;;;;;;;;;;4971877;28;20180;-82
2022/12/02 11:10:25;;;;;;;14.53;7.90;;;;;;;;;;4972699;28;20299;-82
2022/12/02 11:12:51;;;;;;;11.27;6.63;;;;;;;;;;4986740;28;20465;-82
2022/12/02 11:15:45;;;;;;;15.77;8.50;;;;;;;;;;4964534;28;20181;-82
2022/12/02 11:18:29;;;;;;;10.30;6.67;;;;;;;;;;4958559;28;20210;-81
2022/12/02 11:20:54;;;;;;;12.20;7.30;;;;;;;;;;4977148;28;20305;-82
2022/12/02 11:23:20;;;;;;;15.00;7.77;;;;;;;;;;4975002;28;20204;-82
2022/12/02 11:25:59;;;;;;;14.77;7.30;;;;;;;;;;4966914;28;20193;-82
2022/12/02 11:28:27;;;;;;;11.17;7.07;;;;;;;;;;4981490;28;20180;-82
2022/12/02 11:31:08;;;;;;;11.67;7.47;;;;;;;;;;4968117;28;20216;-82
2022/12/02 11:33:43;;;;;;;12.57;6.67;;;;;;;;;;4971224;28;20212;-82
2022/12/02 11:36:08;;;;;;;9.13;5.90;;;;;;;;;;4980461;28;20408;-82
2022/12/02 11:39:03;;;;;;;11.37;7.13;;;;;;;;;;4969723;28;20188;-82
2022/12/02 11:41:29;;;;;;;12.17;7.57;;;;;;;;;;4956068;28;20193;-82
2022/12/02 11:43:55;;;;;;;11.07;6.17;;;;;;;;;;4970350;28;20176;-82
2022/12/02 11:46:21;;;;;;;11.30;7.20;;;;;;;;;;4968635;28;20200;-82
2022/12/02 11:48:48;;;;;;;13.00;8.00;;;;;;;;;;4974530;28;20181;-82
2022/12/02 11:51:37;;;;;;;11.77;7.50;;;;;;;;;;4971803;28;20396;-82
2022/12/02 11:54:02;;;;;;;13.23;7.67;;;;;;;;;;4970808;28;20203;-81
2022/12/02 11:56:31;;;;;;;25.57;8.00;;;;;;;;;;4971251;28;20211;-82
2022/12/02 11:58:56;;;;;;;10.63;6.57;;;;;;;;;;4970755;28;20184;-82
2022/12/02 12:01:21;;;;;;;11.57;7.20;;;;;;;;;;4970516;28;20260;-82
2022/12/02 12:03:47;;;;;;;12.80;7.87;;;;;;;;;;4985136;28;20196;-82
2022/12/02 12:06:14;;;;;;;15.27;8.73;;;;;;;;;;4967829;28;20173;-83
2022/12/02 12:08:41;;;;;;;21.33;8.27;;;;;;;;;;4968467;28;20205;-82
2022/12/02 12:11:17;;;;;;;11.73;6.83;;;;;;;;;;4969704;28;20208;-82
2022/12/02 12:13:59;;;;;;;45.13;8.80;;;;;;;;;;4975227;28;20179;-82
2022/12/02 12:16:24;;;;;;;45.00;8.47;;;;;;;;;;4975651;28;20267;-82
2022/12/02 12:18:50;;;;;;;74.70;8.27;;;;;;;;;;4971894;28;20220;-82
2022/12/02 12:21:30;;;;;;;18.37;6.60;;;;;;;;;;4972045;28;20379;-82
2022/12/02 12:24:14;;;;;;;14.03;6.47;;;;;;;;;;4978041;28;20184;-82
2022/12/02 12:26:40;;;;;;;17.27;6.53;;;;;;;;;;4970937;28;20205;-82
2022/12/02 12:29:05;;;;;;;38.20;8.00;;;;;;;;;;4975802;28;20231;-82
2022/12/02 12:31:30;;;;;;;24.70;6.87;;;;;;;;;;4973414;28;20231;-82
2022/12/02 12:33:55;;;;;;;38.43;7.67;;;;;;;;;;4974992;28;21917;-82
2022/12/02 12:36:21;;;;;;;13.60;5.93;;;;;;;;;;4966053;28;20246;-82
2022/12/02 12:38:46;;;;;;;9.57;6.00;;;;;;;;;;4969131;28;20235;-82
2022/12/02 12:41:11;;;;;;;9.80;6.40;;;;;;;;;;4972017;28;20177;-82
2022/12/02 12:43:36;;;;;;;9.00;5.50;;;;;;;;;;4963292;28;20172;-82
2022/12/02 12:46:02;;;;;;;7.40;5.70;;;;;;;;;;4969932;28;20177;-82
2022/12/02 12:48:27;;;;;;;7.73;5.83;;;;;;;;;;4969981;28;20192;-82
2022/12/02 12:50:52;;;;;;;8.83;5.80;;;;;;;;;;4970014;28;20197;-82
2022/12/02 12:53:17;;;;;;;8.00;5.20;;;;;;;;;;4967462;28;20185;-82
2022/12/02 12:55:43;;;;;;;7.57;4.63;;;;;;;;;;4965189;28;20188;-82
2022/12/02 12:58:08;;;;;;;31.30;6.33;;;;;;;;;;4973176;28;20181;-82
2022/12/02 13:00:33;;;;;;;16.33;5.80;;;;;;;;;;4965429;28;20183;-82
2022/12/02 13:02:58;;;;;;;9.83;5.30;;;;;;;;;;4964533;28;20200;-82
2022/12/02 13:05:23;;;;;;;8.93;5.53;;;;;;;;;;4983616;28;20181;-82
2022/12/02 13:07:49;;;;;;;46.77;7.77;;;;;;;;;;4968144;28;20205;-82
2022/12/02 13:10:14;;;;;;;41.00;6.23;;;;;;;;;;4967179;28;20196;-82
2022/12/02 13:12:39;;;;;;;10.07;5.10;;;;;;;;;;4966706;28;20177;-82
2022/12/02 13:15:05;;;;;;;25.67;5.77;;;;;;;;;;4970721;28;20177;-82
2022/12/02 13:17:30;;;;;;;20.20;5.87;;;;;;;;;;4970437;28;20243;-82
2022/12/02 13:19:55;;;;;;;26.50;5.40;;;;;;;;;;4970412;28;20212;-82
2022/12/02 13:22:20;;;;;;;9.00;4.80;;;;;;;;;;4969727;28;20314;-82
2022/12/02 13:24:46;;;;;;;15.43;5.03;;;;;;;;;;4969828;28;20203;-82
2022/12/02 13:27:11;;;;;;;15.30;5.10;;;;;;;;;;4974280;28;20280;-82
2022/12/02 13:29:36;;;;;;;9.47;4.00;;;;;;;;;;4974781;28;20283;-82
2022/12/02 13:32:01;;;;;;;7.63;3.97;;;;;;;;;;4972940;28;20271;-82
2022/12/02 13:34:27;;;;;;;9.67;3.77;;;;;;;;;;4967895;28;20245;-82
2022/12/02 13:36:52;;;;;;;32.10;5.73;;;;;;;;;;4970996;28;20183;-82
2022/12/02 13:39:17;;;;;;;6.00;3.43;;;;;;;;;;4967449;28;20188;-82
2022/12/02 13:41:42;;;;;;;42.03;5.80;;;;;;;;;;4976152;28;20267;-82
2022/12/02 13:44:07;;;;;;;9.00;3.87;;;;;;;;;;4972410;28;20255;-82
2022/12/02 13:46:33;;;;;;;11.07;4.47;;;;;;;;;;4980646;28;20276;-82
2022/12/02 13:48:58;;;;;;;8.60;4.07;;;;;;;;;;4973982;28;20181;-82
2022/12/02 13:51:23;;;;;;;5.77;4.00;;;;;;;;;;4971558;28;20188;-82
2022/12/02 13:53:48;;;;;;;15.97;10.23;;;;;;;;;;4978987;28;20184;-82
2022/12/02 13:56:13;;;;;;;21.13;4.90;;;;;;;;;;4973296;28;20208;-82
2022/12/02 13:58:39;;;;;;;13.67;5.63;;;;;;;;;;4973998;28;20207;-82
2022/12/02 14:01:04;;;;;;;10.27;5.47;;;;;;;;;;4971547;28;20186;-82
2022/12/02 14:03:29;;;;;;;13.17;4.37;;;;;;;;;;4969247;28;20221;-81
2022/12/02 14:05:54;;;;;;;8.03;5.10;;;;;;;;;;4969503;28;20224;-82
2022/12/02 14:08:20;;;;;;;8.57;4.70;;;;;;;;;;4975490;28;20310;-82
2022/12/02 14:10:45;;;;;;;9.53;5.00;;;;;;;;;;4968031;28;20205;-82
2022/12/02 14:13:10;;;;;;;9.73;4.47;;;;;;;;;;4978020;28;20187;-82
2022/12/02 14:15:35;;;;;;;7.70;4.50;;;;;;;;;;4971062;28;20188;-81
2022/12/02 14:18:00;;;;;;;6.67;4.07;;;;;;;;;;4974083;28;20201;-82
2022/12/02 14:20:26;;;;;;;7.90;4.47;;;;;;;;;;4972304;28;20239;-82
2022/12/02 14:22:51;;;;;;;26.17;5.27;;;;;;;;;;4987012;28;20189;-82
2022/12/02 14:25:16;;;;;;;10.80;4.27;;;;;;;;;;4971173;28;20184;-82
2022/12/02 14:27:41;;;;;;;34.77;5.40;;;;;;;;;;4978802;28;20227;-82